createdAt,value
2018-05-13T00:02:19.419Z,3.70
2018-05-13T00:04:47.524Z,3.27
2018-05-13T00:07:15.637Z,3.60
2018-05-13T00:09:44.566Z,3.80
2018-05-13T00:12:12.724Z,3.77
2018-05-13T00:14:40.981Z,3.83
2018-05-13T00:17:09.248Z,3.67
2018-05-13T00:19:37.484Z,3.87
2018-05-13T00:22:05.724Z,3.73
2018-05-13T00:24:34.998Z,3.60
2018-05-13T00:27:03.223Z,3.80
2018-05-13T00:29:31.499Z,3.50
2018-05-13T00:31:59.697Z,3.40
2018-05-13T00:34:27.921Z,3.90
2018-05-13T00:36:56.801Z,4.10
2018-05-13T00:39:24.944Z,4.07
2018-05-13T00:41:53.043Z,4.40
2018-05-13T00:44:21.206Z,3.80
2018-05-13T00:46:49.319Z,3.90
2018-05-13T00:49:17.421Z,3.87
2018-05-13T00:51:45.869Z,3.70
2018-05-13T00:54:31.737Z,3.70
2018-05-13T00:56:59.857Z,4.33
2018-05-13T00:59:28.023Z,4.77
2018-05-13T01:01:56.937Z,4.17
2018-05-13T01:04:25.837Z,4.23
2018-05-13T01:06:53.937Z,4.00
2018-05-13T01:09:22.343Z,4.57
2018-05-13T01:11:50.438Z,4.37
2018-05-13T01:14:18.553Z,4.00
2018-05-13T01:16:46.887Z,4.33
2018-05-13T01:19:15.022Z,4.20
2018-05-13T01:21:43.195Z,4.47
2018-05-13T01:24:11.409Z,4.37
2018-05-13T01:26:39.724Z,4.20
2018-05-13T01:29:07.921Z,4.40
2018-05-13T01:31:36.140Z,4.30
2018-05-13T01:34:04.272Z,4.40
2018-05-13T01:36:32.372Z,4.40
2018-05-13T01:39:00.519Z,5.00
2018-05-13T01:41:29.177Z,4.53
2018-05-13T01:43:57.278Z,4.50
2018-05-13T01:46:25.396Z,4.23
2018-05-13T01:48:53.523Z,3.83
2018-05-13T01:51:21.619Z,4.03
2018-05-13T01:53:49.729Z,5.10
2018-05-13T01:56:17.839Z,4.47
2018-05-13T01:58:45.943Z,4.03
2018-05-13T02:01:14.139Z,4.60
2018-05-13T02:03:42.436Z,4.70
2018-05-13T02:06:10.555Z,4.60
2018-05-13T02:08:38.807Z,4.43
2018-05-13T02:11:06.915Z,4.63
2018-05-13T02:13:35.035Z,4.63
2018-05-13T02:16:03.721Z,4.93
2018-05-13T02:18:31.845Z,5.67
2018-05-13T02:20:59.945Z,5.37
2018-05-13T02:23:28.061Z,5.60
2018-05-13T02:25:56.209Z,4.40
2018-05-13T02:28:24.307Z,4.27
2018-05-13T02:30:52.469Z,4.60
2018-05-13T02:33:20.596Z,4.90
2018-05-13T02:35:48.735Z,4.77
2018-05-13T02:38:16.973Z,5.03
2018-05-13T02:40:45.111Z,5.83
2018-05-13T02:43:13.384Z,5.03
2018-05-13T02:45:41.646Z,4.90
2018-05-13T02:48:09.767Z,4.73
2018-05-13T02:50:37.868Z,5.10
2018-05-13T02:53:06.081Z,4.90
2018-05-13T02:55:34.199Z,4.83
2018-05-13T02:58:02.301Z,4.63
2018-05-13T03:00:30.397Z,5.17
2018-05-13T03:02:58.519Z,5.20
2018-05-13T03:05:26.627Z,5.67
2018-05-13T03:07:54.739Z,6.97
2018-05-13T03:10:23.255Z,6.43
2018-05-13T03:12:51.359Z,6.27
2018-05-13T03:15:19.455Z,6.20
2018-05-13T03:17:47.569Z,6.53
2018-05-13T03:20:15.687Z,6.23
2018-05-13T03:22:44.577Z,5.53
2018-05-13T03:25:13.399Z,5.50
2018-05-13T03:27:41.507Z,5.60
2018-05-13T03:30:09.660Z,7.07
2018-05-13T03:32:37.766Z,7.50
2018-05-13T03:35:05.866Z,7.10
2018-05-13T03:37:33.964Z,7.67
2018-05-13T03:40:02.136Z,8.33
2018-05-13T03:42:30.372Z,8.67
2018-05-13T03:44:59.038Z,8.50
2018-05-13T03:47:27.127Z,7.73
2018-05-13T03:49:55.253Z,5.87
2018-05-13T03:52:23.376Z,6.90
2018-05-13T03:54:51.534Z,8.77
2018-05-13T03:57:19.712Z,5.57
2018-05-13T03:59:47.834Z,4.80
2018-05-13T04:02:15.946Z,6.30
2018-05-13T04:04:44.045Z,7.47
2018-05-13T04:07:12.171Z,7.50
2018-05-13T04:09:57.863Z,7.60
2018-05-13T04:12:43.571Z,7.93
2018-05-13T04:15:27.468Z,8.17
2018-05-13T04:17:55.612Z,7.87
2018-05-13T04:20:24.247Z,7.07
2018-05-13T04:22:52.375Z,7.60
2018-05-13T04:25:20.546Z,8.30
2018-05-13T04:27:48.682Z,7.53
2018-05-13T04:30:16.837Z,6.40
2018-05-13T04:32:44.926Z,9.17
2018-05-13T04:35:13.035Z,8.90
2018-05-13T04:37:41.129Z,8.33
2018-05-13T04:40:09.241Z,7.90
2018-05-13T04:42:37.345Z,8.13
2018-05-13T04:45:05.495Z,7.13
2018-05-13T04:47:33.619Z,8.43
2018-05-13T04:50:01.740Z,8.90
2018-05-13T04:52:29.835Z,8.10
2018-05-13T04:54:57.991Z,7.87
2018-05-13T04:57:26.161Z,8.23
2018-05-13T04:59:54.263Z,7.77
2018-05-13T05:02:22.359Z,7.63
2018-05-13T05:04:51.027Z,7.77
2018-05-13T05:07:19.143Z,8.80
2018-05-13T05:09:47.291Z,7.70
2018-05-13T05:12:15.400Z,7.03
2018-05-13T05:14:43.531Z,7.37
2018-05-13T05:17:12.333Z,6.80
2018-05-13T05:19:40.500Z,6.40
2018-05-13T05:22:08.624Z,6.40
2018-05-13T05:24:36.742Z,6.40
2018-05-13T05:27:04.860Z,6.60
2018-05-13T05:29:32.977Z,6.33
2018-05-13T05:32:01.110Z,5.67
2018-05-13T05:34:29.296Z,6.30
2018-05-13T05:36:58.228Z,5.77
2018-05-13T05:39:27.104Z,6.17
2018-05-13T05:41:55.238Z,6.23
2018-05-13T05:44:23.356Z,5.87
2018-05-13T05:46:51.532Z,5.53
2018-05-13T05:49:19.704Z,5.63
2018-05-13T05:51:47.917Z,8.43
2018-05-13T05:54:16.152Z,6.23
2018-05-13T05:56:45.042Z,6.37
2018-05-13T05:59:13.137Z,5.80
2018-05-13T06:01:41.247Z,5.57
2018-05-13T06:04:09.350Z,5.53
2018-05-13T06:06:37.436Z,5.73
2018-05-13T06:09:06.491Z,5.50
2018-05-13T06:11:34.597Z,5.57
2018-05-13T06:14:02.775Z,6.00
2018-05-13T06:16:32.363Z,6.20
2018-05-13T06:19:00.621Z,6.27
2018-05-13T06:21:29.183Z,6.60
2018-05-13T06:23:57.301Z,6.07
2018-05-13T06:26:26.283Z,6.13
2018-05-13T06:28:54.419Z,6.10
2018-05-13T06:31:22.528Z,5.63
2018-05-13T06:33:51.281Z,6.07
2018-05-13T06:36:19.449Z,6.50
2018-05-13T06:38:47.631Z,5.60
2018-05-13T06:41:15.825Z,6.00
2018-05-13T06:43:43.980Z,6.40
2018-05-13T06:46:12.108Z,6.00
2018-05-13T06:48:40.254Z,6.00
2018-05-13T06:51:08.978Z,6.23
2018-05-13T06:53:37.105Z,6.33
2018-05-13T06:56:05.236Z,5.97
2018-05-13T06:58:33.748Z,6.43
2018-05-13T07:01:01.840Z,6.10
2018-05-13T07:03:32.501Z,6.73
2018-05-13T07:06:00.618Z,6.13
2018-05-13T07:08:28.745Z,7.20
2018-05-13T07:10:57.636Z,6.77
2018-05-13T07:13:26.516Z,6.47
2018-05-13T07:15:54.613Z,6.50
2018-05-13T07:18:22.724Z,6.43
2018-05-13T07:20:51.498Z,6.87
2018-05-13T07:23:19.603Z,6.40
2018-05-13T07:25:47.767Z,6.70
2018-05-13T07:28:15.868Z,6.37
2018-05-13T07:30:43.973Z,6.77
2018-05-13T07:33:12.090Z,7.20
2018-05-13T07:35:40.198Z,6.67
2018-05-13T07:38:11.241Z,6.70
2018-05-13T07:40:39.426Z,6.60
2018-05-13T07:43:11.188Z,6.30
2018-05-13T07:45:39.318Z,6.77
2018-05-13T07:48:07.435Z,6.67
2018-05-13T07:50:35.570Z,6.43
2018-05-13T07:53:05.082Z,7.00
2018-05-13T07:55:33.960Z,7.00
2018-05-13T07:58:02.382Z,6.80
2018-05-13T08:00:30.486Z,6.70
2018-05-13T08:02:58.607Z,7.23
2018-05-13T08:05:26.730Z,7.30
2018-05-13T08:07:54.847Z,6.60
2018-05-13T08:10:22.956Z,7.17
2018-05-13T08:12:51.524Z,7.10
2018-05-13T08:15:19.644Z,6.63
2018-05-13T08:17:49.156Z,6.43
2018-05-13T08:20:17.488Z,6.90
2018-05-13T08:22:45.595Z,6.87
2018-05-13T08:25:14.054Z,6.83
2018-05-13T08:27:42.168Z,6.33
2018-05-13T08:30:11.001Z,6.60
2018-05-13T08:32:39.118Z,6.70
2018-05-13T08:35:07.244Z,6.30
2018-05-13T08:37:39.680Z,7.13
2018-05-13T08:40:08.287Z,6.47
2018-05-13T08:42:36.433Z,6.27
2018-05-13T08:45:04.867Z,6.87
2018-05-13T08:47:32.995Z,6.70
2018-05-13T08:50:01.161Z,6.37
2018-05-13T08:52:29.410Z,6.67
2018-05-13T08:54:57.682Z,5.93
2018-05-13T08:57:25.818Z,6.00
2018-05-13T08:59:53.958Z,6.67
2018-05-13T09:02:22.108Z,5.60
2018-05-13T09:04:50.200Z,6.20
2018-05-13T09:07:18.322Z,6.20
2018-05-13T09:09:46.424Z,6.10
2018-05-13T09:12:18.640Z,6.77
2018-05-13T09:14:47.601Z,6.20
2018-05-13T09:17:15.710Z,6.73
2018-05-13T09:19:43.894Z,7.27
2018-05-13T09:22:12.526Z,7.47
2018-05-13T09:24:40.710Z,7.10
2018-05-13T09:27:08.814Z,6.70
2018-05-13T09:29:37.477Z,5.73
2018-05-13T09:32:06.363Z,6.30
2018-05-13T09:34:34.575Z,6.60
2018-05-13T09:37:02.827Z,5.97
2018-05-13T09:39:31.076Z,5.83
2018-05-13T09:41:59.265Z,7.13
2018-05-13T09:44:27.516Z,6.47
2018-05-13T09:46:55.655Z,6.13
2018-05-13T09:49:23.762Z,5.77
2018-05-13T09:51:51.880Z,5.37
2018-05-13T09:54:19.989Z,5.07
2018-05-13T09:56:48.132Z,6.40
2018-05-13T09:59:16.287Z,5.60
2018-05-13T10:01:44.400Z,5.20
2018-05-13T10:04:12.701Z,5.17
2018-05-13T10:06:40.706Z,5.60
2018-05-13T10:09:08.804Z,5.83
2018-05-13T10:11:36.979Z,5.03
2018-05-13T10:14:05.095Z,4.80
2018-05-13T10:16:33.349Z,5.77
2018-05-13T10:19:01.421Z,6.27
2018-05-13T10:21:29.536Z,5.70
2018-05-13T10:23:57.649Z,5.87
2018-05-13T10:26:25.883Z,5.67
2018-05-13T10:28:54.002Z,5.17
2018-05-13T10:31:22.092Z,5.50
2018-05-13T10:33:50.971Z,4.63
2018-05-13T10:36:19.102Z,3.60
2018-05-13T10:38:47.196Z,4.20
2018-05-13T10:41:15.302Z,4.10
2018-05-13T10:43:43.400Z,4.37
2018-05-13T10:46:11.547Z,4.37
2018-05-13T10:48:39.665Z,3.43
2018-05-13T10:51:07.766Z,3.10
2018-05-13T10:53:35.886Z,4.07
2018-05-13T10:56:04.016Z,3.33
2018-05-13T10:58:32.132Z,2.97
2018-05-13T11:01:00.226Z,3.07
2018-05-13T11:03:28.344Z,3.30
2018-05-13T11:05:56.448Z,4.03
2018-05-13T11:08:24.575Z,4.33
2018-05-13T11:10:52.670Z,3.83
2018-05-13T11:13:20.791Z,4.03
2018-05-13T11:15:48.894Z,3.93
2018-05-13T11:18:17.187Z,4.07
2018-05-13T11:20:45.308Z,3.73
2018-05-13T11:23:13.445Z,3.90
2018-05-13T11:25:41.576Z,4.20
2018-05-13T11:28:09.721Z,3.87
2018-05-13T11:30:37.836Z,3.60
2018-05-13T11:33:05.993Z,3.63
2018-05-13T11:35:34.107Z,4.17
2018-05-13T11:38:02.202Z,4.67
2018-05-13T11:40:30.348Z,4.17
2018-05-13T11:42:58.449Z,3.07
2018-05-13T11:45:26.560Z,2.70
2018-05-13T11:47:54.665Z,3.33
2018-05-13T11:50:22.795Z,2.60
2018-05-13T11:52:50.888Z,2.83
2018-05-13T11:55:19.014Z,3.00
2018-05-13T11:57:47.109Z,2.67
2018-05-13T12:00:15.227Z,3.47
2018-05-13T12:02:43.354Z,3.40
2018-05-13T12:05:11.445Z,2.97
2018-05-13T12:07:39.570Z,3.50
2018-05-13T12:10:07.708Z,3.83
2018-05-13T12:12:35.816Z,3.57
2018-05-13T12:15:03.995Z,3.73
2018-05-13T12:17:32.166Z,3.00
2018-05-13T12:20:00.411Z,2.97
2018-05-13T12:22:28.570Z,2.93
2018-05-13T12:24:56.798Z,2.77
2018-05-13T12:27:24.936Z,3.10
2018-05-13T12:29:53.037Z,2.27
2018-05-13T12:32:21.889Z,1.90
2018-05-13T12:34:50.009Z,1.73
2018-05-13T12:37:18.119Z,1.77
2018-05-13T12:39:46.314Z,2.20
2018-05-13T12:42:14.501Z,2.13
2018-05-13T12:44:42.744Z,1.77
2018-05-13T12:47:10.841Z,1.60
2018-05-13T12:49:38.967Z,1.77
2018-05-13T12:52:07.073Z,1.80
2018-05-13T12:54:35.166Z,1.57
2018-05-13T12:57:03.283Z,1.73
2018-05-13T12:59:31.375Z,2.10
2018-05-13T13:01:59.525Z,2.10
2018-05-13T13:04:27.763Z,2.00
2018-05-13T13:06:55.899Z,1.57
2018-05-13T13:09:24.078Z,1.83
2018-05-13T13:11:52.163Z,1.80
2018-05-13T13:14:20.997Z,2.00
2018-05-13T13:16:49.103Z,1.83
2018-05-13T13:19:17.249Z,2.17
2018-05-13T13:21:45.478Z,1.90
2018-05-13T13:24:13.818Z,1.30
2018-05-13T13:26:42.035Z,1.73
2018-05-13T13:29:10.202Z,1.60
2018-05-13T13:31:38.340Z,1.70
2018-05-13T13:34:06.453Z,1.50
2018-05-13T13:36:34.574Z,1.87
2018-05-13T13:39:02.700Z,1.97
2018-05-13T13:41:30.789Z,2.10
2018-05-13T13:44:02.875Z,1.60
2018-05-13T13:46:30.992Z,1.90
2018-05-13T13:48:59.147Z,1.90
2018-05-13T13:51:27.358Z,1.90
2018-05-13T13:53:55.606Z,1.63
2018-05-13T13:56:23.879Z,1.70
2018-05-13T13:58:52.019Z,1.70
2018-05-13T14:01:20.126Z,1.50
2018-05-13T14:03:48.725Z,1.73
2018-05-13T14:06:16.919Z,1.70
2018-05-13T14:08:45.095Z,2.10
2018-05-13T14:11:13.367Z,1.70
2018-05-13T14:13:41.863Z,1.70
2018-05-13T14:16:10.790Z,2.10
2018-05-13T14:18:38.909Z,1.60
2018-05-13T14:21:07.465Z,1.70
2018-05-13T14:23:35.585Z,1.63
2018-05-13T14:26:03.849Z,1.60
2018-05-13T14:28:32.070Z,1.60
2018-05-13T14:31:00.262Z,1.30
2018-05-13T14:33:28.437Z,1.43
2018-05-13T14:35:56.532Z,1.50
2018-05-13T14:38:25.167Z,1.60
2018-05-13T14:40:53.407Z,1.57
2018-05-13T14:43:21.566Z,1.50
2018-05-13T14:45:49.734Z,1.93
2018-05-13T14:48:18.065Z,1.60
2018-05-13T14:50:46.214Z,1.60
2018-05-13T14:53:14.325Z,2.00
2018-05-13T14:55:42.808Z,1.40
2018-05-13T14:58:10.986Z,1.50
2018-05-13T15:00:39.186Z,1.60
2018-05-13T15:03:07.283Z,1.50
2018-05-13T15:05:35.400Z,1.50
2018-05-13T15:08:04.114Z,1.40
2018-05-13T15:10:32.281Z,1.70
2018-05-13T15:13:00.401Z,1.60
2018-05-13T15:15:28.544Z,1.60
2018-05-13T15:17:56.658Z,1.47
2018-05-13T15:20:25.529Z,1.40
2018-05-13T15:22:53.646Z,2.00
2018-05-13T15:25:21.756Z,2.70
2018-05-13T15:27:49.862Z,2.57
2018-05-13T15:30:17.971Z,2.50
2018-05-13T15:32:46.099Z,2.50
2018-05-13T15:35:14.199Z,2.60
2018-05-13T15:37:42.324Z,2.70
2018-05-13T15:40:10.413Z,2.80
2018-05-13T15:42:38.589Z,5.50
2018-05-13T15:45:06.863Z,6.07
2018-05-13T15:47:35.383Z,6.33
2018-05-13T15:50:03.549Z,5.23
2018-05-13T15:52:31.675Z,6.40
2018-05-13T15:55:00.840Z,6.00
2018-05-13T15:57:29.700Z,7.60
2018-05-13T15:59:57.831Z,7.83
2018-05-13T16:02:26.018Z,8.70
2018-05-13T16:04:54.232Z,9.43
2018-05-13T16:07:22.409Z,10.83
2018-05-13T16:09:50.583Z,11.97
2018-05-13T16:12:18.820Z,18.00
2018-05-13T16:14:46.934Z,18.10
2018-05-13T16:17:15.118Z,17.90
2018-05-13T16:19:47.173Z,23.33
2018-05-13T16:22:15.335Z,21.97
2018-05-13T16:24:43.554Z,29.63
2018-05-13T16:27:11.815Z,19.27
2018-05-13T16:29:40.072Z,30.97
2018-05-13T16:32:08.323Z,38.80
2018-05-13T16:34:36.498Z,47.20
2018-05-13T16:37:04.763Z,51.80
2018-05-13T16:39:33.696Z,63.47
2018-05-13T16:42:01.825Z,70.23
2018-05-13T16:44:29.964Z,181.33
2018-05-13T16:46:58.074Z,168.10
2018-05-13T16:49:27.771Z,204.53
2018-05-13T16:51:55.907Z,154.77
2018-05-13T16:54:24.031Z,138.67
2018-05-13T16:56:52.157Z,269.33
2018-05-13T16:59:20.268Z,71.00
2018-05-13T17:01:49.171Z,47.80
2018-05-13T17:04:18.060Z,39.40
2018-05-13T17:06:46.211Z,31.10
2018-05-13T17:09:14.365Z,27.67
2018-05-13T17:11:42.485Z,19.90
2018-05-13T17:14:10.640Z,21.60
2018-05-13T17:16:38.760Z,22.93
2018-05-13T17:19:06.965Z,17.67
2018-05-13T17:21:35.103Z,20.27
2018-05-13T17:24:03.232Z,30.23
2018-05-13T17:26:32.114Z,30.47
2018-05-13T17:29:00.977Z,31.63
2018-05-13T17:31:29.154Z,30.43
2018-05-13T17:33:57.279Z,30.00
2018-05-13T17:36:25.753Z,28.40
2018-05-13T17:38:53.870Z,26.60
2018-05-13T17:41:22.787Z,24.63
2018-05-13T17:43:50.978Z,26.93
2018-05-13T17:46:24.199Z,27.23
2018-05-13T17:48:52.733Z,19.17
2018-05-13T17:51:20.871Z,11.23
2018-05-13T17:53:49.019Z,9.00
2018-05-13T17:56:17.139Z,6.10
2018-05-13T17:58:45.265Z,6.00
2018-05-13T18:01:13.388Z,3.87
2018-05-13T18:03:41.493Z,5.20
2018-05-13T18:06:09.631Z,4.37
2018-05-13T18:08:37.779Z,5.80
2018-05-13T18:11:06.171Z,5.60
2018-05-13T18:13:34.345Z,8.27
2018-05-13T18:16:02.525Z,8.80
2018-05-13T18:18:30.756Z,9.70
2018-05-13T18:20:58.892Z,10.03
2018-05-13T18:23:27.074Z,9.30
2018-05-13T18:25:55.266Z,10.00
2018-05-13T18:28:23.497Z,10.73
2018-05-13T18:30:51.654Z,12.53
2018-05-13T18:33:19.898Z,19.13
2018-05-13T18:35:48.093Z,12.17
2018-05-13T18:38:16.238Z,10.67
2018-05-13T18:40:44.340Z,11.50
2018-05-13T18:43:12.460Z,13.47
2018-05-13T18:45:40.604Z,14.70
2018-05-13T18:48:08.761Z,16.23
2018-05-13T18:50:36.888Z,14.97
2018-05-13T18:53:04.994Z,16.60
2018-05-13T18:55:33.124Z,18.07
2018-05-13T18:58:01.853Z,18.50
2018-05-13T19:00:29.981Z,17.77
2018-05-13T19:02:58.155Z,16.63
2018-05-13T19:05:26.317Z,14.80
2018-05-13T19:07:58.642Z,13.57
2018-05-13T19:10:26.766Z,13.87
2018-05-13T19:12:55.712Z,12.70
2018-05-13T19:15:24.307Z,12.47
2018-05-13T19:17:52.808Z,14.93
2018-05-13T19:20:20.907Z,17.70
2018-05-13T19:22:49.797Z,19.30
2018-05-13T19:25:17.917Z,21.33
2018-05-13T19:40:41.712Z,27.07
2018-05-13T19:43:09.847Z,28.83
2018-05-13T19:45:37.967Z,29.23
2018-05-13T19:48:06.076Z,29.47
2018-05-13T19:50:34.222Z,30.83
2018-05-13T19:53:02.333Z,32.13
2018-05-13T19:55:30.471Z,30.93
2018-05-13T19:57:58.573Z,32.53
2018-05-13T20:00:27.377Z,39.00
2018-05-13T20:02:55.531Z,44.20
2018-05-13T20:05:24.400Z,42.00
2018-05-13T20:07:52.626Z,45.40
2018-05-13T20:10:20.873Z,52.80
2018-05-13T20:12:49.126Z,56.90
2018-05-13T20:15:17.395Z,63.33
2018-05-13T20:17:45.584Z,68.83
2018-05-13T20:20:14.463Z,64.53
2018-05-13T20:25:52.802Z,65.93
2018-05-13T20:28:21.692Z,59.20
2018-05-13T20:30:50.636Z,69.00
2018-05-13T20:33:18.786Z,63.77
2018-05-13T20:35:47.031Z,64.17
2018-05-13T20:38:15.568Z,60.47
2018-05-13T20:40:43.723Z,60.43
2018-05-13T20:43:11.841Z,61.13
2018-05-13T20:45:41.473Z,57.13
2018-05-13T20:48:09.581Z,57.53
2018-05-13T20:50:37.713Z,52.63
2018-05-13T20:53:05.887Z,53.70
2018-05-13T20:55:34.911Z,52.33
2018-05-13T20:58:10.796Z,60.70
2018-05-13T21:00:39.072Z,64.10
2018-05-13T21:03:07.224Z,60.67
2018-05-13T21:05:35.393Z,65.87
2018-05-13T21:08:03.528Z,64.07
2018-05-13T21:10:32.528Z,59.63
2018-05-13T21:13:00.710Z,49.87
2018-05-13T21:15:31.995Z,50.53
2018-05-13T21:18:00.154Z,51.73
2018-05-13T21:20:28.287Z,51.03
2018-05-13T21:22:56.420Z,48.50
2018-05-13T21:25:24.698Z,50.50
2018-05-13T21:27:56.776Z,50.43
2018-05-13T21:30:24.912Z,50.97
2018-05-13T21:32:53.058Z,49.33
2018-05-13T21:35:21.236Z,50.07
2018-05-13T21:37:49.357Z,52.07
2018-05-13T21:40:17.486Z,50.60
2018-05-13T21:42:45.602Z,50.67
2018-05-13T21:45:14.020Z,52.47
2018-05-13T21:47:42.134Z,53.27
2018-05-13T21:50:10.287Z,56.80
2018-05-13T21:52:39.200Z,51.77
2018-05-13T21:55:07.348Z,60.83
2018-05-13T21:57:36.029Z,57.47
2018-05-13T22:00:04.184Z,61.27
2018-05-13T22:02:32.475Z,64.67
2018-05-13T22:05:00.651Z,54.50
2018-05-13T22:07:28.823Z,55.97
2018-05-13T22:09:56.926Z,59.77
2018-05-13T22:12:25.077Z,53.63
2018-05-13T22:14:53.198Z,54.63
2018-05-13T22:17:21.356Z,52.37
2018-05-13T22:19:50.242Z,48.17
2018-05-13T22:22:18.660Z,49.87
2018-05-13T22:24:46.805Z,45.20
2018-05-13T22:27:14.942Z,42.10
2018-05-13T22:29:43.142Z,44.27
2018-05-13T22:32:11.286Z,41.57
2018-05-13T22:34:39.427Z,45.93
2018-05-13T22:37:08.641Z,38.77
2018-05-13T22:39:36.725Z,39.13
2018-05-13T22:42:04.843Z,38.80
2018-05-13T22:44:32.967Z,36.67
2018-05-13T22:47:01.074Z,39.73
2018-05-13T22:49:29.275Z,37.13
2018-05-13T22:51:57.430Z,35.10
2018-05-13T22:54:27.082Z,36.80
2018-05-13T22:56:55.216Z,39.27
2018-05-13T22:59:23.340Z,34.67
2018-05-13T23:01:52.332Z,35.20
2018-05-13T23:04:20.775Z,34.50
2018-05-13T23:06:53.074Z,36.40
2018-05-13T23:09:21.241Z,32.53
2018-05-13T23:11:49.368Z,37.57
2018-05-13T23:14:17.830Z,33.90
2018-05-13T23:16:45.934Z,32.60
2018-05-13T23:19:14.840Z,36.37
2018-05-13T23:21:43.793Z,34.97
2018-05-13T23:24:11.935Z,37.80
2018-05-13T23:26:44.690Z,36.20
2018-05-13T23:29:12.855Z,36.73
2018-05-13T23:31:41.037Z,36.07
2018-05-13T23:34:09.283Z,35.13
2018-05-13T23:36:37.537Z,38.63
2018-05-13T23:39:06.484Z,37.40
2018-05-13T23:41:34.592Z,37.63
2018-05-13T23:44:02.721Z,37.73
2018-05-13T23:46:34.909Z,35.30
2018-05-13T23:49:03.051Z,32.67
2018-05-13T23:51:31.263Z,34.70
2018-05-13T23:53:59.328Z,36.70
2018-05-13T23:56:27.475Z,33.53
2018-05-13T23:58:55.648Z,32.23
